createdAt,value
2024-02-29T00:01:48.343Z,14.55
2024-02-29T00:04:51.134Z,21.37
2024-02-29T00:07:53.500Z,22.87
2024-02-29T00:10:56.204Z,25.30
2024-02-29T00:13:58.611Z,22.97
2024-02-29T00:17:04.538Z,26.02
2024-02-29T00:20:10.154Z,24.70
2024-02-29T00:23:12.892Z,24.77
2024-02-29T00:26:18.074Z,23.60
2024-02-29T00:29:20.816Z,24.27
2024-02-29T00:32:23.258Z,28.25
2024-02-29T00:35:25.898Z,26.15
2024-02-29T00:38:28.241Z,29.33
2024-02-29T00:41:30.956Z,29.07
2024-02-29T00:44:33.356Z,24.70
2024-02-29T00:47:36.040Z,25.25
2024-02-29T00:50:38.443Z,26.83
2024-02-29T00:53:41.094Z,28.73
2024-02-29T00:56:43.453Z,29.77
2024-02-29T00:59:46.395Z,26.13
2024-02-29T01:02:48.859Z,26.75
2024-02-29T01:05:51.986Z,24.95
2024-02-29T01:08:54.391Z,29.05
2024-02-29T01:11:57.046Z,25.63
2024-02-29T01:14:59.503Z,25.87
2024-02-29T01:18:04.618Z,25.00
2024-02-29T01:21:07.774Z,22.98
2024-02-29T01:24:10.570Z,22.02
2024-02-29T01:27:13.070Z,30.50
2024-02-29T01:30:16.145Z,25.03
2024-02-29T01:33:18.681Z,27.95
2024-02-29T01:36:21.334Z,24.17
2024-02-29T01:39:23.738Z,23.08
2024-02-29T01:42:26.538Z,26.27
2024-02-29T01:45:29.022Z,27.03
2024-02-29T01:48:31.743Z,20.95
2024-02-29T01:51:34.475Z,26.80
2024-02-29T01:54:38.038Z,24.00
2024-02-29T01:57:40.947Z,24.40
2024-02-29T02:00:45.156Z,16.00
2024-02-29T02:03:47.898Z,24.17
2024-02-29T02:06:50.323Z,18.15
2024-02-29T02:09:53.050Z,25.33
2024-02-29T02:12:55.473Z,25.60
2024-02-29T02:15:58.291Z,26.23
2024-02-29T02:19:00.761Z,27.90
2024-02-29T02:22:05.505Z,27.17
2024-02-29T02:25:08.287Z,27.65
2024-02-29T02:28:13.094Z,31.07
2024-02-29T02:31:15.622Z,28.87
2024-02-29T02:34:18.391Z,26.15
2024-02-29T02:37:20.841Z,31.37
2024-02-29T02:40:23.768Z,26.35
2024-02-29T02:43:26.158Z,27.73
2024-02-29T02:46:28.827Z,29.33
2024-02-29T02:49:31.221Z,30.85
2024-02-29T02:52:33.977Z,30.50
2024-02-29T02:55:36.350Z,28.95
2024-02-29T02:58:40.019Z,30.40
2024-02-29T03:01:42.510Z,30.17
2024-02-29T03:04:45.257Z,33.88
2024-02-29T03:07:48.268Z,28.15
2024-02-29T03:10:50.964Z,35.83
2024-02-29T03:13:54.457Z,33.33
2024-02-29T03:16:57.470Z,30.23
2024-02-29T03:19:59.895Z,33.58
2024-02-29T03:23:02.620Z,26.95
2024-02-29T03:26:06.559Z,33.17
2024-02-29T03:29:09.336Z,28.50
2024-02-29T03:32:11.729Z,29.27
2024-02-29T03:35:14.478Z,29.48
2024-02-29T03:38:17.288Z,28.95
2024-02-29T03:41:19.928Z,29.33
2024-02-29T03:44:22.275Z,31.43
2024-02-29T03:47:24.990Z,31.90
2024-02-29T03:50:28.101Z,32.78
2024-02-29T03:53:30.797Z,32.90
2024-02-29T03:56:33.239Z,33.30
2024-02-29T03:59:35.998Z,30.20
2024-02-29T04:02:39.162Z,31.80
2024-02-29T04:05:41.841Z,32.92
2024-02-29T04:08:44.345Z,32.10
2024-02-29T04:11:47.099Z,32.30
2024-02-29T04:14:49.552Z,34.67
2024-02-29T04:17:52.293Z,33.47
2024-02-29T04:20:54.746Z,33.05
2024-02-29T04:23:57.406Z,37.75
2024-02-29T04:26:59.829Z,36.10
2024-02-29T04:30:02.544Z,33.63
2024-02-29T04:33:07.072Z,39.87
2024-02-29T04:36:09.912Z,39.58
2024-02-29T04:39:12.405Z,33.60
2024-02-29T04:42:15.085Z,36.28
2024-02-29T04:45:17.484Z,35.67
2024-02-29T04:48:20.228Z,33.13
2024-02-29T04:51:22.578Z,32.58
2024-02-29T04:54:25.216Z,38.05
2024-02-29T04:57:27.602Z,37.25
2024-02-29T05:00:30.232Z,35.77
2024-02-29T05:03:41.130Z,39.37
2024-02-29T05:06:43.956Z,39.45
2024-02-29T05:09:46.420Z,38.55
2024-02-29T05:12:51.865Z,35.67
2024-02-29T05:15:54.313Z,40.53
2024-02-29T05:18:57.009Z,34.60
2024-02-29T05:21:59.429Z,32.20
2024-02-29T05:25:02.165Z,34.85
2024-02-29T05:28:04.878Z,26.98
2024-02-29T05:31:07.616Z,34.07
2024-02-29T05:34:10.136Z,30.70
2024-02-29T05:37:13.000Z,32.72
2024-02-29T05:40:15.641Z,29.23
2024-02-29T05:43:19.226Z,31.17
2024-02-29T05:46:21.761Z,33.37
2024-02-29T05:49:24.544Z,28.23
2024-02-29T05:52:27.096Z,26.65
2024-02-29T05:55:29.834Z,29.20
2024-02-29T05:58:32.858Z,27.58
2024-02-29T06:01:36.134Z,33.87
2024-02-29T06:04:38.938Z,37.77
2024-02-29T06:07:41.365Z,37.08
2024-02-29T06:10:47.874Z,30.33
2024-02-29T06:13:50.405Z,31.12
2024-02-29T06:16:53.145Z,32.37
2024-02-29T06:19:55.528Z,60.37
2024-02-29T06:22:59.998Z,84.53
2024-02-29T06:26:02.420Z,70.72
2024-02-29T06:29:05.239Z,65.53
2024-02-29T06:32:07.696Z,49.20
2024-02-29T06:35:10.777Z,44.90
2024-02-29T06:38:13.262Z,49.05
2024-02-29T06:41:15.877Z,45.20
2024-02-29T06:44:18.326Z,44.17
2024-02-29T06:47:21.021Z,57.67
2024-02-29T06:50:23.493Z,48.17
2024-02-29T06:53:26.519Z,36.63
2024-02-29T06:56:28.987Z,37.33
2024-02-29T06:59:31.672Z,32.38
2024-02-29T07:02:34.404Z,29.87
2024-02-29T07:05:37.177Z,23.27
2024-02-29T07:08:39.735Z,29.33
2024-02-29T07:11:42.941Z,23.73
2024-02-29T07:14:45.595Z,29.40
2024-02-29T07:17:49.417Z,28.67
2024-02-29T07:20:52.092Z,29.93
2024-02-29T07:23:54.833Z,29.70
2024-02-29T07:26:57.775Z,27.77
2024-02-29T07:30:00.507Z,25.67
2024-02-29T07:33:03.071Z,26.27
2024-02-29T07:36:05.983Z,24.60
2024-02-29T07:39:08.557Z,23.77
2024-02-29T07:42:11.266Z,25.70
2024-02-29T07:45:13.921Z,26.10
2024-02-29T07:48:17.379Z,26.37
2024-02-29T07:51:19.941Z,22.53
2024-02-29T07:54:22.700Z,29.73
2024-02-29T07:57:26.121Z,25.50
2024-02-29T08:00:28.751Z,26.33
2024-02-29T08:03:31.544Z,25.03
2024-02-29T08:06:34.015Z,25.23
2024-02-29T08:09:36.914Z,25.58
2024-02-29T08:12:39.366Z,23.08
2024-02-29T08:15:42.020Z,23.58
2024-02-29T08:18:45.810Z,20.50
2024-02-29T08:21:49.340Z,23.13
2024-02-29T08:24:52.179Z,22.30
2024-02-29T08:27:55.363Z,20.05
2024-02-29T08:30:57.796Z,20.65
2024-02-29T08:34:00.907Z,20.27
2024-02-29T08:37:03.630Z,21.90
2024-02-29T08:40:07.212Z,19.37
2024-02-29T08:43:11.604Z,22.87
2024-02-29T08:46:14.467Z,23.75
2024-02-29T08:49:16.963Z,23.03
2024-02-29T08:52:20.339Z,23.37
2024-02-29T08:55:23.262Z,21.08
2024-02-29T08:58:26.094Z,21.77
2024-02-29T09:01:28.573Z,23.33
2024-02-29T09:04:31.853Z,24.43
2024-02-29T09:07:34.346Z,23.27
2024-02-29T09:10:37.502Z,21.35
2024-02-29T09:13:39.934Z,21.35
2024-02-29T09:16:42.950Z,25.20
2024-02-29T09:19:45.667Z,25.30
2024-02-29T09:22:50.304Z,22.53
2024-02-29T09:25:52.828Z,23.45
2024-02-29T09:28:55.538Z,24.10
2024-02-29T09:31:58.002Z,22.58
2024-02-29T09:35:00.698Z,21.03
2024-02-29T09:38:03.142Z,25.73
2024-02-29T09:41:13.276Z,24.17
2024-02-29T09:44:28.148Z,26.95
2024-02-29T09:47:32.431Z,21.52
2024-02-29T09:50:34.949Z,25.27
2024-02-29T09:53:39.298Z,23.20
2024-02-29T09:56:42.006Z,23.83
2024-02-29T09:59:44.964Z,26.60
2024-02-29T10:02:51.551Z,19.92
2024-02-29T10:05:56.829Z,21.70
2024-02-29T10:08:59.214Z,24.40
2024-02-29T10:12:03.202Z,23.02
2024-02-29T10:15:07.819Z,23.75
2024-02-29T10:18:10.541Z,23.62
2024-02-29T10:21:16.026Z,22.00
2024-02-29T10:24:23.283Z,25.43
2024-02-29T10:27:25.758Z,24.30
2024-02-29T10:30:28.791Z,23.27
2024-02-29T10:33:31.665Z,25.60
2024-02-29T10:36:34.451Z,23.17
2024-02-29T10:39:39.908Z,22.27
2024-02-29T10:42:43.243Z,29.50
2024-02-29T10:45:49.511Z,25.45
2024-02-29T10:49:16.101Z,27.25
2024-02-29T10:52:27.694Z,28.37
2024-02-29T10:55:31.995Z,28.30
2024-02-29T10:58:44.177Z,28.73
2024-02-29T11:01:48.295Z,30.05
2024-02-29T11:04:51.379Z,28.73
2024-02-29T11:07:54.589Z,24.90
2024-02-29T11:10:57.582Z,29.80
2024-02-29T11:14:21.378Z,27.50
2024-02-29T11:17:26.278Z,24.37
2024-02-29T11:20:30.784Z,27.08
2024-02-29T11:23:36.780Z,24.43
2024-02-29T11:26:39.598Z,26.37
2024-02-29T11:29:46.343Z,27.20
2024-02-29T11:32:49.103Z,25.40
2024-02-29T11:35:52.068Z,30.17
2024-02-29T11:38:56.012Z,24.43
2024-02-29T11:42:03.001Z,27.47
2024-02-29T11:45:07.222Z,28.05
2024-02-29T11:48:09.681Z,29.37
2024-02-29T11:51:12.437Z,28.45
2024-02-29T11:54:16.064Z,28.53
2024-02-29T11:57:19.495Z,29.80
2024-02-29T12:00:22.153Z,29.33
2024-02-29T12:03:25.726Z,30.98
2024-02-29T12:06:28.281Z,30.98
2024-02-29T12:09:33.314Z,31.93
2024-02-29T12:12:35.802Z,30.87
2024-02-29T12:15:39.066Z,30.85
2024-02-29T12:18:41.626Z,33.50
2024-02-29T12:21:45.099Z,30.15
2024-02-29T12:24:47.529Z,31.60
2024-02-29T12:27:50.330Z,29.93
2024-02-29T12:30:52.821Z,28.02
2024-02-29T12:33:56.255Z,31.20
2024-02-29T12:37:00.751Z,26.08
2024-02-29T12:40:05.608Z,24.40
2024-02-29T12:43:14.114Z,24.90
2024-02-29T12:46:18.223Z,23.67
2024-02-29T12:49:21.311Z,27.13
2024-02-29T12:52:24.108Z,26.90
2024-02-29T12:55:26.774Z,29.80
2024-02-29T12:58:29.497Z,29.73
2024-02-29T13:01:32.470Z,26.90
2024-02-29T13:04:35.459Z,28.15
2024-02-29T13:07:38.183Z,24.75
2024-02-29T13:10:41.109Z,27.97
2024-02-29T13:13:43.629Z,25.40
2024-02-29T13:16:46.393Z,23.20
2024-02-29T13:19:48.770Z,31.77
2024-02-29T13:22:51.522Z,33.83
2024-02-29T13:25:55.368Z,26.13
2024-02-29T13:28:58.118Z,24.73
2024-02-29T13:32:02.611Z,24.02
2024-02-29T13:35:07.143Z,25.33
2024-02-29T13:38:09.699Z,25.30
2024-02-29T13:41:12.366Z,22.90
2024-02-29T13:44:14.874Z,26.60
2024-02-29T13:47:17.755Z,27.15
2024-02-29T13:50:21.825Z,24.95
2024-02-29T13:53:24.897Z,26.08
2024-02-29T13:56:28.594Z,26.60
2024-02-29T13:59:31.270Z,23.77
2024-02-29T14:02:34.159Z,23.75
2024-02-29T14:05:37.106Z,22.55
2024-02-29T14:08:40.031Z,25.50
2024-02-29T14:11:43.638Z,23.07
2024-02-29T14:14:46.493Z,20.77
2024-02-29T14:17:49.959Z,22.83
2024-02-29T14:20:52.930Z,23.38
2024-02-29T14:23:55.711Z,21.15
2024-02-29T14:26:58.397Z,24.70
2024-02-29T14:30:01.964Z,23.43
2024-02-29T14:33:05.206Z,26.40
2024-02-29T14:36:12.796Z,23.70
2024-02-29T14:39:15.511Z,19.80
2024-02-29T14:42:18.355Z,22.60
2024-02-29T14:45:20.980Z,20.73
2024-02-29T14:48:24.735Z,21.95
2024-02-29T14:51:27.532Z,27.52
2024-02-29T14:54:30.334Z,23.62
2024-02-29T14:57:32.823Z,25.90
2024-02-29T15:00:36.023Z,23.23
2024-02-29T15:03:38.480Z,26.70
2024-02-29T15:06:42.199Z,21.17
2024-02-29T15:09:44.734Z,18.17
2024-02-29T15:12:47.886Z,21.60
2024-02-29T15:15:50.768Z,26.83
2024-02-29T15:18:54.065Z,28.08
2024-02-29T15:21:56.640Z,19.65
2024-02-29T15:24:59.565Z,22.60
2024-02-29T15:28:05.686Z,26.20
2024-02-29T15:31:09.315Z,34.73
2024-02-29T15:34:11.797Z,34.40
2024-02-29T15:37:14.590Z,35.83
2024-02-29T15:40:17.174Z,33.72
2024-02-29T15:43:20.080Z,34.10
2024-02-29T15:46:25.172Z,35.37
2024-02-29T15:49:28.187Z,32.78
2024-02-29T15:52:30.734Z,22.15
2024-02-29T15:55:33.520Z,17.45
2024-02-29T15:58:36.338Z,17.07
2024-02-29T16:01:39.146Z,21.43
2024-02-29T16:04:42.322Z,18.67
2024-02-29T16:07:44.793Z,25.98
2024-02-29T16:10:47.476Z,27.33
2024-02-29T16:13:50.926Z,27.37
2024-02-29T16:16:53.718Z,22.80
2024-02-29T16:19:56.770Z,21.08
2024-02-29T16:23:00.010Z,20.10
2024-02-29T16:26:05.972Z,22.98
2024-02-29T16:29:08.785Z,22.37
2024-02-29T16:32:11.709Z,16.83
2024-02-29T16:35:14.642Z,16.48
2024-02-29T16:38:17.334Z,24.75
2024-02-29T16:41:20.754Z,31.45
2024-02-29T16:44:27.420Z,23.87
2024-02-29T16:47:30.377Z,23.17
2024-02-29T16:50:33.205Z,17.45
2024-02-29T16:53:36.016Z,31.87
2024-02-29T16:56:38.443Z,23.38
2024-02-29T16:59:42.153Z,25.07
2024-02-29T17:02:45.263Z,35.37
2024-02-29T17:05:48.248Z,30.73
2024-02-29T17:08:50.705Z,25.40
2024-02-29T17:11:53.614Z,30.42
2024-02-29T17:14:56.298Z,33.93
2024-02-29T17:17:59.271Z,30.97
2024-02-29T17:21:01.923Z,43.95
2024-02-29T17:24:04.705Z,33.50
2024-02-29T17:27:07.483Z,33.70
2024-02-29T17:30:12.949Z,17.10
2024-02-29T17:33:15.516Z,24.40
2024-02-29T17:36:18.647Z,36.10
2024-02-29T17:39:21.473Z,36.42
2024-02-29T17:42:25.848Z,36.47
2024-02-29T17:45:28.284Z,27.63
2024-02-29T17:48:31.317Z,21.27
2024-02-29T17:51:35.797Z,24.67
2024-02-29T17:54:38.460Z,27.10
2024-02-29T17:57:40.980Z,28.90
2024-02-29T18:00:43.858Z,27.53
2024-02-29T18:03:47.205Z,23.23
2024-02-29T18:06:51.448Z,25.40
2024-02-29T18:09:56.076Z,26.87
2024-02-29T18:12:59.189Z,29.15
2024-02-29T18:16:02.290Z,29.97
2024-02-29T18:19:05.165Z,36.37
2024-02-29T18:22:07.912Z,36.85
2024-02-29T18:25:10.744Z,33.10
2024-02-29T18:28:15.824Z,33.90
2024-02-29T18:31:18.617Z,31.27
2024-02-29T18:34:21.678Z,27.43
2024-02-29T18:37:26.147Z,29.15
2024-02-29T18:40:30.946Z,24.08
2024-02-29T18:43:33.712Z,32.40
2024-02-29T18:46:36.840Z,34.60
2024-02-29T18:49:41.175Z,31.53
2024-02-29T18:52:44.622Z,31.45
2024-02-29T18:55:47.356Z,27.60
2024-02-29T18:58:50.328Z,32.05
2024-02-29T19:01:56.742Z,46.03
2024-02-29T19:04:59.763Z,35.23
2024-02-29T19:08:02.855Z,28.27
2024-02-29T19:11:05.709Z,33.55
2024-02-29T19:14:08.166Z,28.27
2024-02-29T19:17:11.087Z,28.57
2024-02-29T19:20:13.702Z,25.77
2024-02-29T19:23:16.587Z,31.48
2024-02-29T19:26:19.044Z,28.45
2024-02-29T19:29:22.157Z,28.02
2024-02-29T19:32:25.094Z,32.97
2024-02-29T19:35:29.166Z,24.53
2024-02-29T19:38:32.290Z,27.13
2024-02-29T19:41:35.187Z,27.50
2024-02-29T19:44:38.052Z,25.95
2024-02-29T19:47:41.320Z,26.00
2024-02-29T19:50:43.737Z,25.00
2024-02-29T19:53:47.830Z,24.15
2024-02-29T19:56:50.669Z,32.38
2024-02-29T19:59:53.484Z,25.98
2024-02-29T20:02:56.324Z,29.63
2024-02-29T20:05:59.461Z,31.30
2024-02-29T20:09:02.069Z,27.65
2024-02-29T20:12:05.440Z,32.35
2024-02-29T20:15:08.680Z,32.70
2024-02-29T20:18:11.631Z,28.90
2024-02-29T20:21:16.967Z,26.73
2024-02-29T20:24:19.858Z,31.40
2024-02-29T20:27:23.674Z,28.75
2024-02-29T20:30:28.100Z,27.70
2024-02-29T20:33:30.697Z,25.87
2024-02-29T20:36:33.828Z,28.00
2024-02-29T20:39:36.625Z,26.15
2024-02-29T20:42:39.347Z,27.52
2024-02-29T20:45:41.974Z,29.75
2024-02-29T20:48:45.801Z,25.63
2024-02-29T20:51:48.518Z,30.93
2024-02-29T20:54:51.277Z,27.13
2024-02-29T20:57:54.052Z,30.70
2024-02-29T21:00:57.169Z,35.80
2024-02-29T21:03:59.986Z,20.77
2024-02-29T21:07:02.867Z,23.47
2024-02-29T21:10:05.670Z,22.13
2024-02-29T21:13:11.415Z,20.80
2024-02-29T21:16:13.807Z,19.83
2024-02-29T21:19:16.605Z,20.00
2024-02-29T21:22:19.202Z,19.47
2024-02-29T21:25:22.101Z,23.25
2024-02-29T21:28:24.605Z,22.50
2024-02-29T21:31:28.187Z,19.02
2024-02-29T21:34:30.682Z,21.37
2024-02-29T21:37:33.478Z,19.87
2024-02-29T21:40:36.055Z,23.02
2024-02-29T21:43:38.870Z,21.75
2024-02-29T21:46:41.495Z,22.67
2024-02-29T21:49:45.687Z,21.33
2024-02-29T21:52:49.502Z,22.40
2024-02-29T21:55:52.328Z,22.73
2024-02-29T21:58:54.776Z,19.25
2024-02-29T22:01:57.749Z,25.10
2024-02-29T22:05:00.730Z,24.13
2024-02-29T22:08:03.347Z,23.03
2024-02-29T22:11:06.092Z,24.95
2024-02-29T22:14:08.554Z,22.87
2024-02-29T22:17:11.350Z,24.83
2024-02-29T22:20:13.748Z,21.17
2024-02-29T22:23:16.530Z,24.70
2024-02-29T22:26:19.084Z,24.48
2024-02-29T22:29:23.021Z,24.73
2024-02-29T22:32:25.449Z,26.33
2024-02-29T22:35:28.112Z,24.87
2024-02-29T22:38:30.502Z,28.30
2024-02-29T22:41:38.055Z,27.27
2024-02-29T22:44:43.809Z,24.75
2024-02-29T22:47:46.572Z,25.33
2024-02-29T22:50:49.105Z,25.30
2024-02-29T22:53:51.785Z,26.17
2024-02-29T22:56:54.487Z,25.52
2024-02-29T22:59:58.061Z,28.17
2024-02-29T23:03:02.099Z,31.10
2024-02-29T23:06:05.517Z,34.27
2024-02-29T23:09:07.953Z,36.00
2024-02-29T23:12:10.984Z,28.75
2024-02-29T23:15:13.572Z,32.53
2024-02-29T23:18:16.815Z,30.88
2024-02-29T23:21:19.270Z,29.20
2024-02-29T23:24:21.980Z,43.93
2024-02-29T23:27:24.448Z,29.80
2024-02-29T23:30:27.127Z,31.50
2024-02-29T23:33:29.524Z,30.75
2024-02-29T23:36:32.168Z,32.90
2024-02-29T23:39:35.533Z,30.80
2024-02-29T23:42:38.171Z,29.75
2024-02-29T23:45:40.532Z,26.42
2024-02-29T23:48:43.185Z,24.25
2024-02-29T23:51:45.632Z,28.93
2024-02-29T23:54:48.437Z,26.80
2024-02-29T23:57:50.960Z,24.20
